Time;durP1;ratioP1;P1;durP2;ratioP2;P2;SDS_P1;SDS_P2;PMS_P1;PMS_P2;Temp;Humidity;BMP_temperature;BMP_pressure;BME280_temperature;BME280_humidity;BME280_pressure;Samples;Min_cycle;Max_cycle;Signal;HPM_P1;HPM_P2
2022/03/04 00:02:01;;;;;;;8.07;6.57;;;;;;;14.22;34.73;96489.19;4995166;28;20100;-26
2022/03/04 00:04:28;;;;;;;10.25;6.38;;;;;;;14.14;35.02;96488.72;5012250;28;20021;-26
2022/03/04 00:06:54;;;;;;;9.23;6.63;;;;;;;14.19;34.80;96492.84;5040797;28;20452;-26
2022/03/04 00:09:20;;;;;;;9.13;6.70;;;;;;;14.14;35.12;96490.69;5032479;28;20033;-26
2022/03/04 00:11:48;;;;;;;10.20;6.55;;;;;;;14.17;34.88;96498.75;5031380;28;20116;-26
2022/03/04 00:14:13;;;;;;;8.18;6.10;;;;;;;14.14;34.91;96502.34;5032434;28;20025;-26
2022/03/04 00:16:39;;;;;;;10.57;6.50;;;;;;;14.13;35.14;96489.91;5032184;28;20033;-25
2022/03/04 00:19:09;;;;;;;10.13;6.25;;;;;;;14.18;34.81;96505.72;5032613;28;20145;-26
2022/03/04 00:21:44;;;;;;;8.80;6.40;;;;;;;14.05;35.18;96505.03;5032671;28;20033;-26
2022/03/04 00:24:11;;;;;;;7.72;6.07;;;;;;;14.14;35.10;96501.59;5031950;28;20224;-26
2022/03/04 00:26:38;;;;;;;10.18;6.00;;;;;;;14.16;35.12;96499.94;5028864;28;20381;-26
2022/03/04 00:29:05;;;;;;;8.20;6.13;;;;;;;14.03;35.22;96497.31;5027734;28;20025;-26
2022/03/04 00:31:32;;;;;;;9.80;6.53;;;;;;;14.16;35.01;96493.72;5034594;28;20021;-26
2022/03/04 00:33:58;;;;;;;8.13;6.20;;;;;;;14.03;35.02;96497.31;5034214;28;20041;-26
2022/03/04 00:36:24;;;;;;;11.85;7.20;;;;;;;14.06;35.16;96498.38;5034202;28;20028;-26
2022/03/04 00:38:51;;;;;;;8.95;6.53;;;;;;;14.05;35.19;96482.47;5034416;28;20025;-26
2022/03/04 00:41:21;;;;;;;9.55;6.60;;;;;;;14.02;34.88;96484.13;5034098;28;20071;-26
2022/03/04 00:43:48;;;;;;;9.73;6.78;;;;;;;14.02;35.32;96495.78;5033980;28;20025;-26
2022/03/04 00:46:14;;;;;;;9.55;6.72;;;;;;;14.12;34.94;96493.09;5034287;28;20488;-26
2022/03/04 00:48:43;;;;;;;8.35;6.20;;;;;;;14.05;35.03;96483.22;5034065;28;20033;-26
2022/03/04 00:51:10;;;;;;;10.07;6.88;;;;;;;14.08;34.70;96479.63;5034039;28;20029;-25
2022/03/04 00:53:35;;;;;;;9.88;6.43;;;;;;;14.05;35.31;96483.22;5033804;28;20040;-26
2022/03/04 00:56:01;;;;;;;10.88;6.53;;;;;;;14.00;35.21;96473.66;5033849;28;20017;-25
2022/03/04 00:58:27;;;;;;;9.27;6.72;;;;;;;14.03;35.32;96474.72;5034332;28;20517;-26
2022/03/04 01:00:52;;;;;;;8.73;6.43;;;;;;;13.99;35.31;96463.94;5032611;28;20466;-26
2022/03/04 01:03:21;;;;;;;9.40;6.03;;;;;;;14.06;34.80;96462.16;5030591;28;20045;-26
2022/03/04 01:05:48;;;;;;;8.88;6.07;;;;;;;13.98;34.89;96446.06;5012602;28;20025;-26
2022/03/04 01:08:13;;;;;;;10.05;6.85;;;;;;;13.96;34.83;96455.94;5012822;28;20382;-26
2022/03/04 01:10:39;;;;;;;10.63;6.68;;;;;;;14.03;34.64;96445.50;5013904;28;20022;-26
2022/03/04 01:13:05;;;;;;;9.00;6.57;;;;;;;14.05;34.80;96449.75;5013908;28;20030;-26
2022/03/04 01:15:30;;;;;;;8.73;6.50;;;;;;;13.91;35.08;96454.53;5013870;28;20045;-26
2022/03/04 01:17:56;;;;;;;9.80;6.28;;;;;;;14.01;34.83;96447.16;5013625;28;20053;-26
2022/03/04 01:20:23;;;;;;;10.13;6.40;;;;;;;14.01;34.87;96444.41;5013149;28;20106;-26
2022/03/04 01:22:48;;;;;;;10.25;7.35;;;;;;;13.95;34.49;96449.72;5014144;28;20021;-26
2022/03/04 01:25:14;;;;;;;8.98;6.60;;;;;;;14.01;34.28;96445.19;5013737;28;20512;-26
2022/03/04 01:27:40;;;;;;;9.32;6.25;;;;;;;14.01;34.91;96449.88;5013944;28;20106;-26
2022/03/04 01:30:08;;;;;;;8.68;6.35;;;;;;;14.02;34.75;96441.25;5013584;28;20466;-26
2022/03/04 01:32:35;;;;;;;9.18;6.38;;;;;;;13.97;34.81;96449.28;5013849;28;20022;-26
2022/03/04 01:35:00;;;;;;;8.57;6.13;;;;;;;14.07;34.70;96444.59;5013690;28;20442;-26
2022/03/04 01:37:26;;;;;;;9.05;6.50;;;;;;;14.01;34.70;96444.41;5013545;28;20053;-26
2022/03/04 01:39:52;;;;;;;10.80;6.40;;;;;;;13.94;34.64;96442.75;5013620;28;20022;-26
2022/03/04 01:42:17;;;;;;;9.77;7.22;;;;;;;14.02;34.52;96446.69;5013580;28;20098;-26
2022/03/04 01:44:43;;;;;;;9.82;6.50;;;;;;;13.96;34.67;96432.16;5012283;28;20096;-26
2022/03/04 01:47:09;;;;;;;8.63;6.90;;;;;;;13.93;34.71;96433.03;5013356;28;20029;-26
2022/03/04 01:49:35;;;;;;;8.88;6.65;;;;;;;14.01;34.49;96419.88;5013639;28;20421;-26
2022/03/04 01:52:01;;;;;;;10.63;6.80;;;;;;;14.06;34.30;96427.47;5013989;28;20026;-26
2022/03/04 01:54:27;;;;;;;9.80;7.03;;;;;;;14.07;34.66;96429.00;5013550;28;20486;-25
2022/03/04 01:56:52;;;;;;;8.95;6.30;;;;;;;14.10;34.33;96430.06;5013462;28;20125;-25
2022/03/04 01:59:18;;;;;;;10.05;6.57;;;;;;;14.02;34.36;96422.16;5013625;28;20018;-26
2022/03/04 02:01:44;;;;;;;11.77;6.85;;;;;;;14.17;34.29;96424.34;5013407;28;20030;-26
2022/03/04 02:04:10;;;;;;;9.65;6.13;;;;;;;14.10;34.05;96416.41;5013357;28;20046;-26
2022/03/04 02:06:36;;;;;;;11.43;7.18;;;;;;;14.01;34.30;96412.47;5013319;28;20037;-26
2022/03/04 02:09:03;;;;;;;10.93;7.30;;;;;;;14.06;34.44;96413.09;5012045;28;20494;-26
2022/03/04 02:11:28;;;;;;;9.15;6.90;;;;;;;14.06;34.21;96410.38;5013308;28;20076;-26
2022/03/04 02:13:54;;;;;;;9.77;6.60;;;;;;;13.98;34.49;96416.06;5013400;28;20029;-26
2022/03/04 02:16:26;;;;;;;11.13;7.85;;;;;;;14.01;34.51;96406.25;5013228;28;20449;-26
2022/03/04 02:18:53;;;;;;;10.43;7.10;;;;;;;13.93;34.70;96402.28;5012072;28;20036;-26
2022/03/04 02:21:22;;;;;;;11.45;7.18;;;;;;;13.86;34.54;96400.56;5013353;28;20026;-26
2022/03/04 02:23:48;;;;;;;10.13;6.93;;;;;;;13.99;34.33;96401.25;5013124;28;20033;-26
2022/03/04 02:26:16;;;;;;;9.73;7.25;;;;;;;14.10;34.11;96397.31;5013178;28;20466;-26
2022/03/04 02:28:42;;;;;;;10.05;7.13;;;;;;;14.12;34.13;96400.38;5012900;28;20033;-26
2022/03/04 02:31:08;;;;;;;10.23;6.80;;;;;;;14.09;34.23;96393.09;5015343;28;20021;-26
2022/03/04 02:33:33;;;;;;;10.73;7.32;;;;;;;13.83;34.72;96396.03;5016742;28;20587;-26
2022/03/04 02:35:59;;;;;;;10.68;7.22;;;;;;;13.95;34.79;96395.19;5016729;28;20076;-26
2022/03/04 02:38:25;;;;;;;11.90;7.85;;;;;;;13.99;34.66;96398.50;5016767;28;20454;-26
2022/03/04 02:40:50;;;;;;;10.20;7.65;;;;;;;13.93;34.47;96397.59;5016572;28;20025;-26
2022/03/04 02:43:16;;;;;;;10.05;7.30;;;;;;;13.91;34.61;96397.28;5015413;28;20100;-26
2022/03/04 02:45:41;;;;;;;10.45;7.35;;;;;;;13.89;34.95;96401.66;5016606;28;20495;-26
2022/03/04 02:48:07;;;;;;;11.60;7.38;;;;;;;14.07;34.43;96398.25;5016654;28;20379;-25
2022/03/04 02:50:32;;;;;;;10.43;7.28;;;;;;;14.01;34.48;96400.78;5016454;28;20022;-26
2022/03/04 02:52:58;;;;;;;10.65;7.07;;;;;;;14.02;34.29;96402.31;5015166;28;20378;-26
2022/03/04 02:55:24;;;;;;;10.48;6.93;;;;;;;13.93;34.39;96397.59;5016339;28;20386;-26
2022/03/04 02:57:49;;;;;;;12.02;7.53;;;;;;;13.90;34.50;96392.28;5016332;28;20127;-26
2022/03/04 03:00:16;;;;;;;11.93;7.78;;;;;;;13.93;34.35;96394.88;5016455;28;20043;-26
2022/03/04 03:02:43;;;;;;;10.38;7.40;;;;;;;13.98;34.30;96390.78;5016115;28;20088;-26
2022/03/04 03:05:10;;;;;;;10.40;7.50;;;;;;;14.08;34.34;96386.13;5016217;28;20037;-26
2022/03/04 03:07:37;;;;;;;9.85;7.10;;;;;;;13.94;34.43;96382.75;5016268;28;20108;-26
2022/03/04 03:10:04;;;;;;;10.43;7.38;;;;;;;13.93;34.34;96392.13;5016225;28;20026;-26
2022/03/04 03:12:30;;;;;;;10.90;7.30;;;;;;;13.95;34.20;96388.97;5014773;28;20386;-26
2022/03/04 03:14:55;;;;;;;10.52;8.20;;;;;;;13.92;34.34;96387.91;5016180;28;20025;-26
2022/03/04 03:17:21;;;;;;;11.80;8.00;;;;;;;13.96;34.47;96387.75;5015783;28;20030;-25
2022/03/04 03:19:46;;;;;;;11.60;7.65;;;;;;;13.96;34.59;96383.06;5015971;28;20117;-26
2022/03/04 03:22:14;;;;;;;9.68;7.20;;;;;;;13.90;34.66;96386.81;5015908;28;20022;-26
2022/03/04 03:24:40;;;;;;;9.57;7.68;;;;;;;13.86;34.57;96383.47;5015863;28;20021;-27
2022/03/04 03:27:06;;;;;;;11.07;8.05;;;;;;;13.81;34.55;96384.06;5016105;28;20037;-26
2022/03/04 03:29:31;;;;;;;9.88;7.57;;;;;;;13.86;34.69;96383.47;5015888;28;20025;-26
2022/03/04 03:31:57;;;;;;;10.95;7.60;;;;;;;13.83;34.38;96381.66;5015939;28;20033;-26
2022/03/04 03:34:22;;;;;;;10.35;7.53;;;;;;;13.81;34.78;96376.66;5015861;28;20037;-26
2022/03/04 03:36:48;;;;;;;11.65;7.82;;;;;;;13.92;34.44;96368.81;5015571;28;20025;-26
2022/03/04 03:39:13;;;;;;;10.82;7.80;;;;;;;13.82;34.91;96367.25;5015580;28;20033;-26
2022/03/04 03:41:39;;;;;;;11.60;7.68;;;;;;;13.83;34.61;96374.25;5014939;28;20060;-26
2022/03/04 03:44:05;;;;;;;10.65;7.30;;;;;;;13.83;34.40;96371.50;5015345;28;20109;-26
2022/03/04 03:46:30;;;;;;;8.25;6.65;;;;;;;13.73;34.80;96369.94;5015485;28;20033;-26
2022/03/04 03:48:56;;;;;;;10.30;6.88;;;;;;;13.79;35.06;96367.41;5015305;28;20363;-26
2022/03/04 03:51:22;;;;;;;9.07;7.07;;;;;;;13.80;34.73;96369.69;5015453;28;20072;-26
2022/03/04 03:53:47;;;;;;;10.13;6.50;;;;;;;13.87;34.68;96363.94;5015218;28;20359;-26
2022/03/04 03:56:13;;;;;;;9.77;6.88;;;;;;;13.85;34.52;96351.97;5015664;28;20022;-26
2022/03/04 03:58:38;;;;;;;10.98;7.32;;;;;;;13.74;34.87;96366.00;5015357;28;20029;-26
2022/03/04 04:01:04;;;;;;;11.18;7.63;;;;;;;13.76;34.66;96366.31;5015234;28;20040;-26
2022/03/04 04:03:30;;;;;;;11.38;7.00;;;;;;;13.69;34.78;96352.97;5015100;28;20049;-26
2022/03/04 04:05:56;;;;;;;9.48;7.50;;;;;;;13.77;34.63;96359.66;5015060;28;20091;-26
2022/03/04 04:08:22;;;;;;;10.30;6.88;;;;;;;13.72;34.79;96357.53;5015096;28;20037;-26
2022/03/04 04:10:47;;;;;;;9.93;7.03;;;;;;;13.67;34.99;96360.84;5015086;28;20105;-26
2022/03/04 04:13:13;;;;;;;10.43;6.93;;;;;;;13.65;35.03;96365.97;5014733;28;20049;-26
2022/03/04 04:15:38;;;;;;;8.93;6.38;;;;;;;13.81;34.46;96359.53;5014814;28;20466;-26
2022/03/04 04:18:04;;;;;;;10.98;6.40;;;;;;;13.63;34.79;96355.50;5015175;28;20042;-26
2022/03/04 04:20:30;;;;;;;10.32;7.05;;;;;;;13.71;34.77;96356.03;5014866;28;20521;-26
2022/03/04 04:22:55;;;;;;;9.20;6.57;;;;;;;13.70;34.59;96354.50;5015040;28;20032;-26
2022/03/04 04:25:21;;;;;;;8.88;6.30;;;;;;;13.64;34.93;96348.84;5014924;28;20402;-26
2022/03/04 04:27:47;;;;;;;10.68;6.43;;;;;;;13.67;34.60;96360.84;5014766;28;20048;-26
2022/03/04 04:30:13;;;;;;;9.13;6.80;;;;;;;13.61;34.78;96351.72;5014569;28;20470;-26
2022/03/04 04:32:39;;;;;;;8.60;5.85;;;;;;;13.57;35.31;96351.09;5014666;28;20462;-26
2022/03/04 04:35:05;;;;;;;9.90;6.20;;;;;;;13.64;35.09;96345.38;5014376;28;20510;-26
2022/03/04 04:37:31;;;;;;;9.82;6.63;;;;;;;13.66;34.61;96343.72;5014527;28;20044;-26
2022/03/04 04:39:57;;;;;;;9.10;6.28;;;;;;;13.64;34.64;96350.81;5014452;28;20458;-26
2022/03/04 04:42:22;;;;;;;9.77;6.50;;;;;;;13.63;34.91;96346.59;5014333;28;20030;-26
2022/03/04 04:44:48;;;;;;;8.40;6.53;;;;;;;13.61;34.45;96351.72;5014527;28;20061;-26
2022/03/04 04:47:14;;;;;;;7.88;6.15;;;;;;;13.57;34.86;96348.38;5014203;28;20033;-26
2022/03/04 04:49:40;;;;;;;9.80;6.68;;;;;;;13.63;34.70;96344.63;5014379;28;20080;-26
2022/03/04 04:52:06;;;;;;;10.00;7.13;;;;;;;13.65;34.59;96350.38;5014172;28;20052;-26
2022/03/04 04:54:33;;;;;;;8.25;6.38;;;;;;;13.55;34.75;96340.66;5013853;28;20029;-26
2022/03/04 04:56:59;;;;;;;8.82;6.40;;;;;;;13.64;34.92;96334.47;5014275;28;20029;-26
2022/03/04 04:59:25;;;;;;;8.27;6.47;;;;;;;13.66;34.77;96332.06;5014245;28;20033;-26
2022/03/04 05:01:50;;;;;;;10.00;6.68;;;;;;;13.63;34.47;96332.94;5014035;28;20034;-26
2022/03/04 05:04:16;;;;;;;9.85;6.43;;;;;;;13.66;34.78;96332.81;5013936;28;20053;-26
2022/03/04 05:06:41;;;;;;;10.68;7.30;;;;;;;13.61;34.67;96343.53;5014145;28;20041;-26
2022/03/04 05:09:07;;;;;;;9.52;6.95;;;;;;;13.57;34.31;96329.31;5013992;28;20038;-26
2022/03/04 05:11:33;;;;;;;10.50;6.70;;;;;;;13.57;34.63;96342.94;5012707;28;20133;-26
2022/03/04 05:13:58;;;;;;;10.65;6.50;;;;;;;13.62;34.37;96340.38;5014434;28;20046;-26
2022/03/04 05:16:24;;;;;;;10.45;7.90;;;;;;;13.55;34.64;96346.09;5013850;28;20405;-26
2022/03/04 05:18:49;;;;;;;10.77;7.25;;;;;;;13.62;34.40;96345.81;5013867;28;20126;-26
2022/03/04 05:21:15;;;;;;;8.40;6.80;;;;;;;13.61;34.46;96351.72;5012778;28;20030;-26
2022/03/04 05:23:59;;;;;;;10.32;7.20;;;;;;;13.57;34.73;96343.69;5013821;28;20458;-26
2022/03/04 05:26:32;;;;;;;9.85;6.28;;;;;;;13.57;34.39;96337.47;5013901;28;20030;-26
2022/03/04 05:28:59;;;;;;;10.45;6.43;;;;;;;13.64;34.28;96339.94;5013721;28;20105;-26
2022/03/04 05:31:25;;;;;;;8.98;5.95;;;;;;;13.55;34.80;96331.72;5013703;28;20048;-26
2022/03/04 05:33:51;;;;;;;9.35;6.72;;;;;;;13.57;34.41;96340.22;5013545;28;20022;-26
2022/03/04 05:36:17;;;;;;;10.38;6.78;;;;;;;13.59;34.56;96332.34;5013637;28;20386;-26
2022/03/04 05:38:43;;;;;;;8.40;6.40;;;;;;;13.54;34.35;96336.41;5013895;28;20060;-26
2022/03/04 05:41:09;;;;;;;10.15;6.35;;;;;;;13.56;34.60;96338.69;5013824;28;20454;-26
2022/03/04 05:43:35;;;;;;;8.77;6.60;;;;;;;13.54;34.76;96352.00;5013479;28;20473;-26
2022/03/04 05:46:01;;;;;;;9.43;6.90;;;;;;;13.55;34.67;96353.53;5013612;28;20029;-26
2022/03/04 05:48:27;;;;;;;9.07;6.50;;;;;;;13.52;34.20;96346.22;5013647;28;20079;-26
2022/03/04 05:50:52;;;;;;;10.50;6.05;;;;;;;13.58;34.31;96358.84;5013436;28;20030;-26
2022/03/04 05:53:18;;;;;;;8.05;6.07;;;;;;;13.57;34.40;96356.56;5013412;28;20071;-26
2022/03/04 05:55:43;;;;;;;10.85;5.90;;;;;;;13.56;34.20;96349.59;5013470;28;20022;-26
2022/03/04 05:58:10;;;;;;;8.13;5.82;;;;;;;13.55;34.82;96367.16;5017821;28;20029;-26
2022/03/04 06:00:36;;;;;;;9.15;6.13;;;;;;;13.57;34.34;96357.31;5031170;28;20049;-26
2022/03/04 06:03:02;;;;;;;10.43;6.25;;;;;;;13.52;34.80;96359.84;5031009;28;20045;-26
2022/03/04 06:05:27;;;;;;;8.02;5.97;;;;;;;13.50;34.49;96362.25;5032396;28;20389;-26
2022/03/04 06:07:53;;;;;;;7.68;6.20;;;;;;;13.55;34.49;96361.69;5035163;28;20022;-26
2022/03/04 06:10:18;;;;;;;8.35;6.07;;;;;;;13.59;34.39;96365.06;5034945;28;20075;-26
2022/03/04 06:12:44;;;;;;;9.60;6.05;;;;;;;13.53;34.62;96358.66;5035005;28;20032;-26
2022/03/04 06:15:10;;;;;;;9.73;7.00;;;;;;;13.55;34.36;96359.72;5033380;28;20037;-26
2022/03/04 06:17:36;;;;;;;9.93;6.97;;;;;;;13.49;34.76;96360.75;5033472;28;20057;-26
2022/03/04 06:20:02;;;;;;;11.75;7.72;;;;;;;13.54;34.40;96360.16;5034820;28;20102;-26
2022/03/04 06:22:28;;;;;;;10.63;7.95;;;;;;;13.50;34.89;96354.84;5034419;28;20025;-26
2022/03/04 06:24:53;;;;;;;10.35;7.78;;;;;;;13.49;34.93;96345.16;5034540;28;20033;-26
2022/03/04 06:27:19;;;;;;;11.57;7.55;;;;;;;13.49;34.95;96350.59;5034521;28;20461;-26
2022/03/04 06:29:44;;;;;;;12.80;8.05;;;;;;;13.54;34.82;96357.44;5034791;28;20037;-26
2022/03/04 06:32:11;;;;;;;15.88;9.35;;;;;;;13.43;34.83;96368.00;5034478;28;20029;-26
2022/03/04 06:34:37;;;;;;;15.75;8.35;;;;;;;13.57;34.59;96362.00;5034026;28;20099;-26
2022/03/04 06:37:03;;;;;;;11.27;8.00;;;;;;;13.46;35.20;96364.38;5034585;28;20070;-26
2022/03/04 06:39:28;;;;;;;12.52;7.95;;;;;;;13.39;34.87;96370.06;5034682;28;20033;-26
2022/03/04 06:41:54;;;;;;;12.27;7.75;;;;;;;13.46;35.11;96373.31;5034216;28;20391;-25
2022/03/04 06:44:20;;;;;;;14.75;7.72;;;;;;;13.50;34.81;96376.66;5034291;28;20022;-26
2022/03/04 06:46:46;;;;;;;16.50;7.95;;;;;;;13.58;35.12;96385.31;5032579;28;20127;-26
2022/03/04 06:49:12;;;;;;;13.88;8.05;;;;;;;13.52;35.21;96366.06;5034328;28;20426;-26
2022/03/04 06:51:39;;;;;;;12.07;8.50;;;;;;;13.58;34.88;96360.81;5032799;28;20033;-24
2022/03/04 06:54:05;;;;;;;11.55;7.50;;;;;;;13.52;34.92;96347.00;5033837;28;20481;-24
2022/03/04 06:56:30;;;;;;;11.57;8.00;;;;;;;13.56;35.34;96353.06;5034351;28;20033;-24
2022/03/04 06:58:56;;;;;;;12.15;7.72;;;;;;;13.60;34.95;96363.81;5033944;28;20039;-26
2022/03/04 07:01:21;;;;;;;13.73;8.48;;;;;;;13.57;35.31;96373.66;5032836;28;20766;-26
2022/03/04 07:03:48;;;;;;;16.00;7.95;;;;;;;13.47;35.42;96382.25;5034014;28;20045;-26
2022/03/04 07:06:13;;;;;;;13.00;8.73;;;;;;;13.54;35.15;96371.06;5034130;28;20036;-26
2022/03/04 07:08:39;;;;;;;11.25;7.47;;;;;;;13.52;35.20;96376.19;5034007;28;20033;-26
2022/03/04 07:11:05;;;;;;;11.18;8.10;;;;;;;13.46;35.33;96380.72;5033716;28;20147;-26
2022/03/04 07:13:31;;;;;;;11.82;7.50;;;;;;;13.55;35.08;96378.03;5033846;28;20104;-26
2022/03/04 07:15:57;;;;;;;14.73;7.90;;;;;;;13.51;35.33;96378.16;5031540;28;20026;-26
2022/03/04 07:18:29;;;;;;;10.70;6.80;;;;;;;13.51;35.50;96369.22;5032829;28;20485;-26
2022/03/04 07:20:58;;;;;;;11.47;7.70;;;;;;;13.54;35.58;96368.34;5033741;28;20031;-26
2022/03/04 07:23:24;;;;;;;10.93;7.85;;;;;;;13.62;35.36;96380.47;5033394;28;20018;-26
2022/03/04 07:25:51;;;;;;;11.25;7.72;;;;;;;13.59;35.25;96376.72;5033762;28;20025;-26
2022/03/04 07:28:17;;;;;;;10.05;7.63;;;;;;;13.54;35.08;96374.56;5033717;28;20400;-26
2022/03/04 07:30:43;;;;;;;10.75;7.25;;;;;;;13.61;34.99;96371.56;5033672;28;20032;-26
2022/03/04 07:33:09;;;;;;;10.77;7.30;;;;;;;13.65;35.21;96368.69;5033488;28;20026;-26
2022/03/04 07:35:35;;;;;;;12.43;7.97;;;;;;;13.59;35.29;96362.31;5033137;28;20025;-26
2022/03/04 07:38:02;;;;;;;10.48;6.90;;;;;;;13.56;35.39;96368.66;5033456;28;20095;-26
2022/03/04 07:40:28;;;;;;;11.23;7.22;;;;;;;13.57;35.33;96368.22;5033444;28;20476;-26
2022/03/04 07:42:53;;;;;;;13.05;6.88;;;;;;;13.51;35.78;96375.44;5032878;28;20104;-26
2022/03/04 07:45:19;;;;;;;11.55;7.60;;;;;;;13.55;35.39;96386.22;5033159;28;20033;-26
2022/03/04 07:47:45;;;;;;;11.77;7.40;;;;;;;13.51;35.56;96385.56;5033029;28;20037;-26
2022/03/04 07:50:13;;;;;;;10.38;6.93;;;;;;;13.49;35.80;96383.28;5033164;28;20025;-26
2022/03/04 07:52:39;;;;;;;10.50;7.10;;;;;;;13.55;35.42;96388.94;5033010;28;20022;-26
2022/03/04 07:55:08;;;;;;;10.57;7.10;;;;;;;13.52;35.73;96384.38;5033142;28;20036;-26
2022/03/04 07:57:34;;;;;;;12.38;7.15;;;;;;;13.54;35.83;96385.44;5032806;28;20027;-26
2022/03/04 08:00:00;;;;;;;9.68;7.00;;;;;;;13.59;35.46;96382.16;5032970;28;20029;-26
2022/03/04 08:02:25;;;;;;;9.98;7.38;;;;;;;13.68;35.27;96380.66;5032436;28;20138;-26
2022/03/04 08:04:51;;;;;;;8.90;6.55;;;;;;;13.67;35.70;96371.75;5033033;28;20029;-26
2022/03/04 08:07:17;;;;;;;10.43;7.68;;;;;;;13.65;36.01;96374.91;5032860;28;20022;-26
2022/03/04 08:09:43;;;;;;;9.02;6.75;;;;;;;13.61;35.65;96373.50;5031874;28;20367;-26
2022/03/04 08:12:09;;;;;;;8.65;6.40;;;;;;;13.51;36.02;96375.44;5032140;28;20029;-26
2022/03/04 08:14:35;;;;;;;11.80;7.50;;;;;;;13.68;35.90;96384.16;5027721;28;20520;-26
2022/03/04 08:17:01;;;;;;;9.32;6.88;;;;;;;13.61;35.81;96389.88;5030687;28;20029;-26
2022/03/04 08:19:26;;;;;;;9.40;6.88;;;;;;;13.55;36.00;96380.75;5034092;28;20028;-26
2022/03/04 08:21:52;;;;;;;10.82;6.72;;;;;;;13.61;35.91;96381.69;5034154;28;20456;-26
2022/03/04 08:24:18;;;;;;;9.98;7.18;;;;;;;13.68;35.74;96377.94;5034052;28;20017;-26
2022/03/04 08:26:43;;;;;;;11.02;6.68;;;;;;;13.67;36.18;96371.75;5034359;28;20037;-26
2022/03/04 08:29:10;;;;;;;8.52;6.32;;;;;;;13.65;36.10;96368.69;5034066;28;20032;-26
2022/03/04 08:31:36;;;;;;;9.50;7.10;;;;;;;13.51;36.36;96369.22;5034398;28;20025;-26
2022/03/04 08:34:02;;;;;;;10.48;6.85;;;;;;;13.42;36.66;96369.19;5044506;28;20449;-26
2022/03/04 08:36:28;;;;;;;10.88;7.45;;;;;;;13.36;37.17;96352.66;5051530;28;20500;-26
2022/03/04 08:38:53;;;;;;;10.65;7.53;;;;;;;13.40;37.15;96358.75;5053857;28;20020;-26
2022/03/04 08:41:19;;;;;;;10.80;6.88;;;;;;;13.48;36.68;96351.03;5054018;28;20025;-26
2022/03/04 08:43:47;;;;;;;9.57;6.35;;;;;;;13.50;36.82;96351.38;5054046;28;20444;-26
2022/03/04 08:46:14;;;;;;;17.75;11.25;;;;;;;12.63;40.82;96356.81;5052306;28;20104;-26
2022/03/04 08:48:43;;;;;;;18.17;11.90;;;;;;;12.23;42.62;96358.16;5051937;28;20360;-27
2022/03/04 08:51:09;;;;;;;24.38;13.32;;;;;;;12.77;40.63;96369.94;5053874;28;20071;-27
2022/03/04 08:53:35;;;;;;;22.25;13.57;;;;;;;13.04;40.04;96375.59;5054051;28;20481;-28
2022/03/04 08:56:01;;;;;;;19.58;12.25;;;;;;;13.17;39.55;96389.94;5054204;28;20043;-27
2022/03/04 08:58:26;;;;;;;21.25;12.15;;;;;;;13.16;38.94;96374.78;5054216;28;20021;-27
2022/03/04 09:00:52;;;;;;;19.55;11.45;;;;;;;13.27;39.22;96388.78;5053868;28;20027;-28
2022/03/04 09:03:18;;;;;;;18.30;11.10;;;;;;;13.37;38.36;96380.66;5053541;28;20064;-27
2022/03/04 09:05:43;;;;;;;18.77;11.07;;;;;;;13.36;38.34;96373.69;5053921;28;20073;-28
2022/03/04 09:08:09;;;;;;;19.73;11.38;;;;;;;13.29;38.85;96375.47;5053707;28;20362;-27
2022/03/04 09:10:35;;;;;;;20.45;10.68;;;;;;;13.33;38.41;96374.59;5053639;28;20170;-27
2022/03/04 09:13:00;;;;;;;16.98;11.02;;;;;;;13.45;38.21;96382.69;5053529;28;20029;-27
2022/03/04 09:15:26;;;;;;;17.55;10.10;;;;;;;13.52;37.85;96382.41;5053662;28;20377;-27
2022/03/04 09:17:52;;;;;;;19.40;9.18;;;;;;;13.57;37.95;96384.56;5053569;28;20017;-27
2022/03/04 09:20:19;;;;;;;15.50;8.88;;;;;;;13.50;37.71;96367.72;5053662;28;20040;-27
2022/03/04 09:22:46;;;;;;;12.30;8.35;;;;;;;13.32;38.03;96368.38;5053528;28;20112;-27
2022/03/04 09:25:12;;;;;;;12.32;8.63;;;;;;;13.42;38.14;96371.91;5053635;28;20025;-29
2022/03/04 09:27:37;;;;;;;14.52;9.02;;;;;;;13.56;37.37;96365.94;5053420;28;20028;-27
2022/03/04 09:30:04;;;;;;;11.75;8.10;;;;;;;13.57;37.54;96372.91;5053381;28;20029;-27
2022/03/04 09:32:29;;;;;;;11.88;7.63;;;;;;;13.45;37.71;96374.50;5053311;28;20392;-27
2022/03/04 09:34:55;;;;;;;11.20;7.35;;;;;;;13.44;38.03;96369.50;5053257;28;20021;-27
2022/03/04 09:37:21;;;;;;;12.30;7.50;;;;;;;13.36;38.31;96373.69;5053238;28;20159;-27
2022/03/04 09:39:46;;;;;;;10.75;7.50;;;;;;;13.39;38.12;96383.69;5052546;28;20099;-27
2022/03/04 09:42:12;;;;;;;9.15;6.22;;;;;;;13.05;39.09;96370.91;5053530;28;20024;-27
2022/03/04 09:44:40;;;;;;;12.15;7.05;;;;;;;13.22;38.79;96378.47;5053474;28;20541;-27
2022/03/04 09:47:06;;;;;;;10.43;5.65;;;;;;;12.71;39.24;96377.16;5053160;28;20469;-27
2022/03/04 09:49:35;;;;;;;8.60;5.90;;;;;;;13.15;38.73;96373.25;5052227;28;20029;-27
2022/03/04 09:52:01;;;;;;;9.60;6.45;;;;;;;13.17;38.79;96370.88;5053204;28;20028;-27
2022/03/04 09:54:28;;;;;;;8.32;6.10;;;;;;;13.24;38.41;96362.44;5053024;28;20036;-27
2022/03/04 09:56:54;;;;;;;7.38;5.43;;;;;;;13.36;38.32;96365.50;5053124;28;20025;-27
2022/03/04 09:59:20;;;;;;;9.40;6.35;;;;;;;13.38;38.15;96368.56;5053163;28;20029;-28
2022/03/04 10:01:47;;;;;;;8.82;6.40;;;;;;;13.23;38.21;96371.03;5052977;28;20043;-27
2022/03/04 10:04:12;;;;;;;10.60;6.57;;;;;;;13.37;37.82;96367.03;5052940;28;20044;-27
2022/03/04 10:06:38;;;;;;;8.18;5.68;;;;;;;13.44;38.08;96366.78;5053097;28;20075;-28
2022/03/04 10:09:04;;;;;;;10.30;5.55;;;;;;;13.19;38.31;96364.97;5052784;28;20094;-27
2022/03/04 10:11:33;;;;;;;9.45;6.18;;;;;;;13.40;37.56;96366.16;5053079;28;20032;-27
2022/03/04 10:14:13;;;;;;;8.13;5.18;;;;;;;13.38;37.68;96371.28;5053101;28;20017;-27
2022/03/04 10:16:41;;;;;;;7.90;5.30;;;;;;;13.37;37.76;96375.22;5046989;28;20100;-27
2022/03/04 10:19:16;;;;;;;7.45;4.75;;;;;;;13.12;38.33;96371.41;5031329;28;20428;-27
2022/03/04 10:22:04;;;;;;;8.05;5.15;;;;;;;13.34;37.81;96378.84;5032969;28;20025;-27
2022/03/04 10:24:31;;;;;;;7.47;5.22;;;;;;;13.49;37.53;96377.84;5033038;28;20021;-27
2022/03/04 10:27:02;;;;;;;8.50;5.20;;;;;;;13.35;37.86;96380.38;5032832;28;20022;-27
2022/03/04 10:29:30;;;;;;;8.38;5.18;;;;;;;13.58;37.16;96379.88;5032817;28;20026;-27
2022/03/04 10:32:13;;;;;;;6.97;4.60;;;;;;;13.49;37.79;96377.09;5032840;28;20037;-27
2022/03/04 10:34:43;;;;;;;5.75;4.43;;;;;;;13.47;37.59;96372.09;5032919;28;20394;-27
2022/03/04 10:37:09;;;;;;;7.70;4.68;;;;;;;13.48;37.42;96373.59;5032645;28;20029;-27
2022/03/04 10:40:00;;;;;;;6.80;4.72;;;;;;;13.19;38.55;96364.97;5032787;28;20450;-27
2022/03/04 10:42:50;;;;;;;7.70;4.45;;;;;;;13.40;38.16;96375.09;5032963;28;20029;-27
2022/03/04 10:45:23;;;;;;;7.43;4.80;;;;;;;13.40;38.26;96368.88;5032264;28;20120;-26
2022/03/04 10:47:52;;;;;;;6.90;5.07;;;;;;;13.15;38.92;96365.09;5032567;28;20034;-27
2022/03/04 10:50:25;;;;;;;6.28;4.28;;;;;;;13.40;38.04;96352.53;5032725;28;20436;-26
2022/03/04 10:53:03;;;;;;;6.95;4.38;;;;;;;13.41;38.19;96365.72;5035830;28;20033;-28
2022/03/04 10:55:30;;;;;;;6.50;4.43;;;;;;;13.43;38.01;96351.66;5036260;28;20040;-27
2022/03/04 10:57:57;;;;;;;6.65;4.45;;;;;;;13.52;38.17;96343.50;5036100;28;20033;-28
2022/03/04 11:00:25;;;;;;;5.45;4.03;;;;;;;13.60;37.55;96334.59;5036034;28;20071;-27
2022/03/04 11:02:51;;;;;;;6.50;4.47;;;;;;;13.40;38.63;96331.50;5036075;28;20045;-27
2022/03/04 11:05:18;;;;;;;6.63;4.40;;;;;;;13.04;39.31;96325.81;5035918;28;20052;-27
2022/03/04 11:07:44;;;;;;;5.10;4.10;;;;;;;13.07;39.85;96322.97;5036192;28;20024;-27
2022/03/04 11:10:10;;;;;;;6.60;4.40;;;;;;;13.21;38.85;96327.94;5034681;28;20032;-27
2022/03/04 11:12:36;;;;;;;5.88;4.10;;;;;;;12.05;43.44;96322.63;5035814;28;20025;-27
2022/03/04 11:15:02;;;;;;;5.75;3.35;;;;;;;12.33;42.99;96325.59;5035145;28;20469;-27
2022/03/04 11:17:29;;;;;;;4.97;3.33;;;;;;;12.89;41.37;96331.78;5035119;28;20104;-28
2022/03/04 11:19:56;;;;;;;3.97;3.28;;;;;;;13.17;40.69;96327.28;5035715;28;20035;-27
2022/03/04 11:22:21;;;;;;;6.47;3.28;;;;;;;13.25;40.41;96331.25;5035589;28;20079;-27
2022/03/04 11:24:47;;;;;;;6.50;3.60;;;;;;;13.29;40.32;96331.13;5035756;28;20462;-28
2022/03/04 11:27:17;;;;;;;5.38;3.22;;;;;;;13.33;39.78;96344.63;5020423;28;20022;-27